Northsea Beta — 9HA2594 — position and weather

sailwx.info

Track history (hours):
 
Tides and Currents Weather Stations Pressure Air Temp Water Temp Dewpoint Dewpoint Depression Visibility Wind Speed Wind Dir Waves Ship Positions

Northsea Beta

Last reported at 2016-Apr-29 11:32 UTC. Time now 2016-May-01 08:02 UTC.
Position N 51°57' E 003°44'.

Length 110 m; draft 5.7 m.

Type: Tanker. MMSI: 248970000.

Date/timePositionNaut miles runAvg speedWind from/ knotsBaromVisibWave heightAir tempDewpointWater temp
2016-Apr-29 11:32N 51°57' E 003°44'0 0.0
2016-Apr-29 01:23N 51°57' E 003°44'0 0.0
2016-Apr-28 23:11N 51°57' E 003°44'0 0.0
2016-Apr-28 22:11N 51°57' E 003°44'0 0.0
2016-Apr-28 15:23N 51°57' E 003°44'0 0.0
2016-Apr-26 16:17N 51°57' E 003°44'1 0.1
2016-Apr-26 06:18N 51°56' E 003°42'1 0.4
2016-Apr-26 04:22N 51°57' E 003°43'0 0.0
2016-Apr-26 03:28N 51°57' E 003°43'0 0.0
2016-Apr-26 01:31N 51°57' E 003°43'0 0.0
2016-Apr-26 00:31N 51°57' E 003°43'0 0.0
2016-Apr-25 06:28N 51°57' E 003°43'0 0.0
2016-Apr-25 04:28N 51°57' E 003°43'0 0.0
2016-Apr-25 03:28N 51°57' E 003°43'0 0.0
2016-Apr-25 02:22N 51°57' E 003°43'0 0.0
2016-Apr-24 03:28N 51°57' E 003°43'0 0.0
2016-Apr-24 02:16N 51°57' E 003°43'0 0.0
2016-Apr-23 07:10N 51°57' E 003°43'0 0.1
2016-Apr-23 06:31N 51°57' E 003°43'0 0.0
2016-Apr-23 02:04N 51°57' E 003°43'2 0.3
2016-Apr-22 18:30N 51°58' E 003°45'9 9.1
2016-Apr-22 17:33N 52°01' E 003°59'1211.7
2016-Apr-22 16:33N 51°55' E 004°15'2 0.1
2016-Apr-22 02:17N 51°53' E 004°16'0 0.0
2016-Apr-22 00:29N 51°53' E 004°16'0 0.0
2016-Apr-21 23:32N 51°53' E 004°16'0 0.0
2016-Apr-21 16:33N 51°53' E 004°16'2 2.5
2016-Apr-21 15:33N 51°55' E 004°14'1010.0
2016-Apr-21 14:34N 51°60' E 004°00'1111.0
2016-Apr-21 13:33N 52°02' E 003°42'6410.2
2016-Apr-21 07:19N 52°54' E 002°43'1012.3
2016-Apr-21 06:30N 53°01' E 002°30'5011.4
2016-Apr-21 02:10N 53°39' E 001°38'4110.3
2016-Apr-20 22:10N 54°13' E 000°58'610.2
2016-Apr-20 21:34N 54°17' E 000°50'1110.5
2016-Apr-20 20:33N 54°25' E 000°37'1110.6
2016-Apr-20 19:33N 54°32' E 000°23'1111.2
2016-Apr-20 18:34N 54°37' E 000°06'1211.6
2016-Apr-20 17:33N 54°42' W 000°12'3712.0
2016-Apr-20 14:30N 54°58' W 001°10'9 0.4
2016-Apr-19 13:07N 55°01' W 001°24'2 3.1
2016-Apr-19 12:32N 55°02' W 001°22'0 0.0
2016-Apr-19 11:32N 55°02' W 001°22'  
Track history (hours):
 
Tides and Currents Weather Stations Pressure Air Temp Water Temp Dewpoint Dewpoint Depression Visibility Wind Speed Wind Dir Waves Ship Positions

Northsea Beta

Last reported at 2016-Apr-29 11:32 UTC. Time now 2016-May-01 08:02 UTC.
Position N 51°57' E 003°44'.

Length 110 m; draft 5.7 m.

Type: Tanker. MMSI: 248970000.

Date/timePositionNaut miles runAvg speedWind from/ knotsBaromVisibWave heightAir tempDewpointWater temp
2016-Apr-29 11:32N 51°57' E 003°44'0 0.0
2016-Apr-29 01:23N 51°57' E 003°44'0 0.0
2016-Apr-28 23:11N 51°57' E 003°44'0 0.0
2016-Apr-28 22:11N 51°57' E 003°44'0 0.0
2016-Apr-28 15:23N 51°57' E 003°44'0 0.0
2016-Apr-26 16:17N 51°57' E 003°44'1 0.1
2016-Apr-26 06:18N 51°56' E 003°42'1 0.4
2016-Apr-26 04:22N 51°57' E 003°43'0 0.0
2016-Apr-26 03:28N 51°57' E 003°43'0 0.0
2016-Apr-26 01:31N 51°57' E 003°43'0 0.0
2016-Apr-26 00:31N 51°57' E 003°43'0 0.0
2016-Apr-25 06:28N 51°57' E 003°43'0 0.0
2016-Apr-25 04:28N 51°57' E 003°43'0 0.0
2016-Apr-25 03:28N 51°57' E 003°43'0 0.0
2016-Apr-25 02:22N 51°57' E 003°43'0 0.0
2016-Apr-24 03:28N 51°57' E 003°43'0 0.0
2016-Apr-24 02:16N 51°57' E 003°43'0 0.0
2016-Apr-23 07:10N 51°57' E 003°43'0 0.1
2016-Apr-23 06:31N 51°57' E 003°43'0 0.0
2016-Apr-23 02:04N 51°57' E 003°43'2 0.3
2016-Apr-22 18:30N 51°58' E 003°45'9 9.1
2016-Apr-22 17:33N 52°01' E 003°59'1211.7
2016-Apr-22 16:33N 51°55' E 004°15'2 0.1
2016-Apr-22 02:17N 51°53' E 004°16'0 0.0
2016-Apr-22 00:29N 51°53' E 004°16'0 0.0
2016-Apr-21 23:32N 51°53' E 004°16'0 0.0
2016-Apr-21 16:33N 51°53' E 004°16'2 2.5
2016-Apr-21 15:33N 51°55' E 004°14'1010.0
2016-Apr-21 14:34N 51°60' E 004°00'1111.0
2016-Apr-21 13:33N 52°02' E 003°42'6410.2
2016-Apr-21 07:19N 52°54' E 002°43'1012.3
2016-Apr-21 06:30N 53°01' E 002°30'5011.4
2016-Apr-21 02:10N 53°39' E 001°38'4110.3
2016-Apr-20 22:10N 54°13' E 000°58'610.2
2016-Apr-20 21:34N 54°17' E 000°50'1110.5
2016-Apr-20 20:33N 54°25' E 000°37'1110.6
2016-Apr-20 19:33N 54°32' E 000°23'1111.2
2016-Apr-20 18:34N 54°37' E 000°06'1211.6
2016-Apr-20 17:33N 54°42' W 000°12'3712.0
2016-Apr-20 14:30N 54°58' W 001°10'9 0.4
2016-Apr-19 13:07N 55°01' W 001°24'2 3.1
2016-Apr-19 12:32N 55°02' W 001°22'0 0.0
2016-Apr-19 11:32N 55°02' W 001°22'  

Dump ship's entire track history